Time;durP1;ratioP1;P1;durP2;ratioP2;P2;SDS_P1;SDS_P2;PMS_P1;PMS_P2;Temp;Humidity;BMP_temperature;BMP_pressure;BME280_temperature;BME280_humidity;BME280_pressure;Samples;Min_cycle;Max_cycle;Signal;HPM_P1;HPM_P2
2021/03/20 00:01:13;;;;;;;3.72;1.77;;;;;;;-3.94;100.00;98574.38;5052281;28;20048;-79
2021/03/20 00:03:39;;;;;;;7.75;1.70;;;;;;;-3.92;100.00;98569.69;5052429;28;20041;-79
2021/03/20 00:06:06;;;;;;;6.95;1.73;;;;;;;-3.85;100.00;98570.56;5066145;28;20064;-78
2021/03/20 00:08:42;;;;;;;8.67;1.70;;;;;;;-3.72;100.00;98584.81;5081525;22;20546;-83
2021/03/20 00:11:10;;;;;;;8.77;1.60;;;;;;;-3.66;100.00;98576.88;5063686;28;20084;-81
2021/03/20 00:13:36;;;;;;;7.93;2.10;;;;;;;-3.60;100.00;98570.78;5072189;28;20040;-82
2021/03/20 00:16:02;;;;;;;5.00;1.65;;;;;;;-3.52;100.00;98569.78;5045636;28;20048;-81
2021/03/20 00:18:29;;;;;;;4.72;1.73;;;;;;;-3.48;100.00;98578.94;5070169;28;20052;-81
2021/03/20 00:20:56;;;;;;;10.85;2.22;;;;;;;-3.51;100.00;98574.06;5070347;28;20048;-81
2021/03/20 00:23:23;;;;;;;11.23;2.17;;;;;;;-3.49;100.00;98582.59;5070014;28;20040;-82
2021/03/20 00:25:53;;;;;;;2.45;1.45;;;;;;;-3.58;100.00;98581.16;5071329;28;20048;-83
2021/03/20 00:28:24;;;;;;;7.60;1.70;;;;;;;-3.55;100.00;98596.63;5069048;28;20048;-81
2021/03/20 00:31:00;;;;;;;5.18;1.58;;;;;;;-3.66;100.00;98590.09;5052171;28;20094;-81
2021/03/20 00:33:28;;;;;;;5.72;1.70;;;;;;;-3.80;100.00;98594.56;5056695;28;20125;-81
2021/03/20 00:35:56;;;;;;;7.15;1.40;;;;;;;-3.86;100.00;98589.25;5074334;28;20119;-80
2021/03/20 00:38:24;;;;;;;6.07;1.60;;;;;;;-3.88;100.00;98592.09;5091709;28;20567;-82
2021/03/20 00:40:52;;;;;;;5.95;1.70;;;;;;;-3.90;100.00;98586.19;5091683;28;20420;-82
2021/03/20 00:43:18;;;;;;;7.15;1.90;;;;;;;-3.94;100.00;98590.25;5073614;28;20036;-81
2021/03/20 00:45:44;;;;;;;5.53;1.63;;;;;;;-4.03;100.00;98599.38;5073425;28;20059;-80
2021/03/20 00:48:14;;;;;;;12.70;1.80;;;;;;;-4.04;100.00;98607.50;5090919;28;20048;-80
2021/03/20 00:50:41;;;;;;;9.50;1.60;;;;;;;-4.10;100.00;98590.59;5072533;28;20044;-82
2021/03/20 00:53:07;;;;;;;6.68;1.88;;;;;;;-4.13;100.00;98582.25;5074027;28;20229;-80
2021/03/20 00:55:33;;;;;;;9.20;2.20;;;;;;;-4.13;100.00;98588.34;5073650;28;20051;-81
2021/03/20 00:57:59;;;;;;;5.40;1.55;;;;;;;-4.15;100.00;98584.25;5056982;28;20052;-82
2021/03/20 01:00:28;;;;;;;5.45;1.50;;;;;;;-4.20;100.00;98582.22;5091021;28;20055;-81
2021/03/20 01:02:54;;;;;;;5.78;1.50;;;;;;;-4.22;100.00;98589.53;5071775;28;20070;-82
2021/03/20 01:05:24;;;;;;;4.40;1.50;;;;;;;-4.23;100.00;98581.81;5056570;28;20074;-82
2021/03/20 01:07:50;;;;;;;8.40;2.00;;;;;;;-4.32;100.00;98596.19;5072858;28;20366;-81
2021/03/20 01:10:20;;;;;;;7.95;1.70;;;;;;;-4.34;100.00;98606.97;5056193;28;20147;-82
2021/03/20 01:12:47;;;;;;;9.85;2.03;;;;;;;-4.47;100.00;98602.44;5060255;28;20028;-85
2021/03/20 01:15:15;;;;;;;9.48;1.90;;;;;;;-4.48;100.00;98607.91;5078019;28;20517;-82
2021/03/20 01:17:42;;;;;;;10.45;1.73;;;;;;;-4.58;100.00;98608.28;5059162;28;20047;-82
2021/03/20 01:20:09;;;;;;;7.22;1.63;;;;;;;-4.51;100.00;98626.78;5074633;28;20044;-83
2021/03/20 01:22:35;;;;;;;9.15;1.55;;;;;;;-4.53;100.00;98623.53;5073673;28;20432;-81
2021/03/20 01:25:04;;;;;;;8.30;1.80;;;;;;;-4.55;100.00;98626.38;5074360;28;20083;-82
2021/03/20 01:27:30;;;;;;;10.23;2.45;;;;;;;-4.55;100.00;98615.00;5073082;28;20055;-83
2021/03/20 01:29:57;;;;;;;10.50;2.13;;;;;;;-4.58;100.00;98621.47;5073229;28;20052;-82
2021/03/20 01:32:23;;;;;;;8.65;1.98;;;;;;;-4.64;100.00;98624.91;5056226;28;20056;-81
2021/03/20 01:34:49;;;;;;;9.85;2.30;;;;;;;-4.64;100.00;98619.63;5053856;28;20048;-81
2021/03/20 01:37:15;;;;;;;10.55;1.75;;;;;;;-4.66;100.00;98624.28;5069167;28;20040;-82
2021/03/20 01:39:48;;;;;;;8.77;1.80;;;;;;;-4.64;100.00;98630.19;5063032;28;20413;-83
2021/03/20 01:42:16;;;;;;;7.18;1.65;;;;;;;-4.65;100.00;98617.19;5037704;28;20067;-82
2021/03/20 01:44:43;;;;;;;8.50;1.85;;;;;;;-4.70;100.00;98630.97;5054132;28;20045;-82
2021/03/20 01:47:15;;;;;;;6.22;1.67;;;;;;;-4.72;100.00;98632.97;5071205;28;20044;-82
2021/03/20 01:49:45;;;;;;;9.30;2.17;;;;;;;-4.80;100.00;98627.81;5071133;28;20123;-81
2021/03/20 01:52:22;;;;;;;6.95;2.00;;;;;;;-4.95;100.00;98613.91;5051075;28;20397;-81
2021/03/20 01:55:16;;;;;;;8.13;2.00;;;;;;;-4.96;100.00;98627.31;5070114;28;20049;-81
2021/03/20 01:57:50;;;;;;;9.50;2.00;;;;;;;-5.05;100.00;98624.81;5071904;28;20056;-82
2021/03/20 02:00:26;;;;;;;5.47;1.97;;;;;;;-5.07;100.00;98621.56;5054356;28;20511;-81
2021/03/20 02:02:53;;;;;;;8.10;2.20;;;;;;;-5.10;100.00;98614.03;5036338;28;20057;-82
2021/03/20 02:05:29;;;;;;;7.63;2.33;;;;;;;-5.11;100.00;98614.22;5054436;28;20071;-81
2021/03/20 02:07:57;;;;;;;8.35;2.42;;;;;;;-5.28;100.00;98618.94;5059819;28;20484;-80
2021/03/20 02:10:27;;;;;;;8.20;1.90;;;;;;;-5.30;100.00;98622.78;5054921;28;20045;-81
2021/03/20 02:12:57;;;;;;;5.83;1.67;;;;;;;-5.30;100.00;98617.50;5033427;28;20059;-81
2021/03/20 02:15:43;;;;;;;8.98;2.30;;;;;;;-5.31;100.00;98613.22;5046725;28;20069;-80
2021/03/20 02:18:16;;;;;;;7.35;1.98;;;;;;;-5.34;100.00;98616.25;5039933;28;20059;-80
2021/03/20 02:20:57;;;;;;;7.90;1.88;;;;;;;-5.31;100.00;98623.78;5029033;28;20099;-80
2021/03/20 02:23:55;;;;;;;9.02;2.45;;;;;;;-5.33;100.00;98625.78;5056979;28;20126;-82
2021/03/20 02:26:49;;;;;;;8.60;2.30;;;;;;;-5.39;100.00;98637.91;5087694;28;20093;-80
2021/03/20 02:29:39;;;;;;;4.45;2.00;;;;;;;-5.36;100.00;98634.91;5054126;28;20073;-82
2021/03/20 02:32:33;;;;;;;8.60;2.30;;;;;;;-5.31;100.00;98640.44;5089167;28;20044;-81
2021/03/20 02:35:14;;;;;;;7.60;2.13;;;;;;;-5.33;100.00;98625.78;5031686;28;20045;-81
2021/03/20 02:37:52;;;;;;;6.43;2.05;;;;;;;-5.30;100.00;98634.16;5030161;28;20379;-81
2021/03/20 02:40:51;;;;;;;9.70;2.00;;;;;;;-5.19;100.00;98638.91;5045174;28;20064;-80
2021/03/20 02:43:30;;;;;;;8.80;2.05;;;;;;;-5.22;100.00;98631.38;5049050;28;20500;-80
2021/03/20 02:46:26;;;;;;;8.68;2.38;;;;;;;-5.23;100.00;98632.38;5069001;28;20056;-80
2021/03/20 02:49:07;;;;;;;;;;;;;;;-5.23;100.00;98635.03;5051424;28;20074;-81
2021/03/20 02:51:47;;;;;;;9.20;2.10;;;;;;;-5.17;100.00;98639.56;5035173;28;19928;-80
2021/03/20 02:54:34;;;;;;;12.25;2.38;;;;;;;-5.19;100.00;98646.03;5069077;28;20039;-80
2021/03/20 02:57:09;;;;;;;14.82;2.55;;;;;;;-5.29;100.00;98625.22;5051366;28;20053;-81
2021/03/20 02:59:40;;;;;;;6.30;1.88;;;;;;;-5.26;100.00;98629.28;5051224;28;20549;-81
2021/03/20 03:02:09;;;;;;;7.30;2.53;;;;;;;-5.27;100.00;98639.06;5034309;28;20056;-81
2021/03/20 03:04:49;;;;;;;9.77;2.10;;;;;;;-5.25;100.00;98637.03;5051718;28;20039;-80
2021/03/20 03:07:35;;;;;;;10.88;2.15;;;;;;;-5.26;100.00;98630.13;5069548;28;20105;-80
2021/03/20 03:10:05;;;;;;;;;;;;;;;-5.19;100.00;98620.44;5051709;28;20151;-81
2021/03/20 03:12:37;;;;;;;10.25;2.15;;;;;;;-5.24;100.00;98622.81;5052012;28;19924;-81
2021/03/20 03:15:10;;;;;;;7.22;2.50;;;;;;;-5.29;100.00;98622.56;5051455;28;20055;-81
2021/03/20 03:17:41;;;;;;;7.72;2.38;;;;;;;-5.34;100.00;98624.97;5070762;28;20051;-80
2021/03/20 03:20:27;;;;;;;13.70;2.58;;;;;;;-5.32;100.00;98622.97;5077514;28;20090;-80
2021/03/20 03:23:08;;;;;;;9.73;2.28;;;;;;;-5.31;100.00;98640.44;5055271;28;20487;-79
2021/03/20 03:25:40;;;;;;;12.05;2.80;;;;;;;-5.43;100.00;98620.03;5054693;28;20455;-81
2021/03/20 03:28:13;;;;;;;6.28;2.08;;;;;;;-5.40;100.00;98624.94;5055270;28;20315;-80
2021/03/20 03:30:39;;;;;;;6.90;2.58;;;;;;;-5.50;100.00;98630.53;5056789;28;20065;-80
2021/03/20 03:33:23;;;;;;;7.72;2.75;;;;;;;-5.58;100.00;98622.72;5078835;28;20067;-81
2021/03/20 03:35:55;;;;;;;8.75;2.33;;;;;;;-5.54;100.00;98639.81;5055207;28;20048;-80
2021/03/20 03:38:28;;;;;;;16.27;2.67;;;;;;;-5.50;100.00;98637.63;5072440;28;20132;-80
2021/03/20 03:40:59;;;;;;;8.40;2.60;;;;;;;-5.49;100.00;98636.59;5072329;28;20113;-80
2021/03/20 03:43:25;;;;;;;9.93;2.70;;;;;;;-5.41;100.00;98639.94;5036835;28;20059;-81
2021/03/20 03:45:51;;;;;;;8.32;2.38;;;;;;;-5.32;100.00;98630.91;5071798;28;20046;-81
2021/03/20 03:48:19;;;;;;;12.68;2.58;;;;;;;-5.32;100.00;98644.09;5036388;28;20090;-80
2021/03/20 03:50:47;;;;;;;11.95;2.40;;;;;;;-5.30;100.00;98639.44;5061252;28;20041;-81
2021/03/20 03:53:18;;;;;;;9.15;2.60;;;;;;;-5.19;100.00;98638.91;5056012;28;20052;-80
2021/03/20 03:55:45;;;;;;;10.82;2.78;;;;;;;-5.15;100.00;98639.34;5054851;28;20048;-80
2021/03/20 03:58:25;;;;;;;14.18;2.45;;;;;;;-5.10;100.00;98643.06;5083060;28;20539;-80
2021/03/20 04:01:09;;;;;;;7.63;2.00;;;;;;;-5.05;100.00;98653.03;5059117;28;20391;-81
2021/03/20 04:03:46;;;;;;;11.70;2.65;;;;;;;-4.94;100.00;98649.06;5037263;28;20412;-81
2021/03/20 04:06:50;;;;;;;9.10;2.30;;;;;;;-4.85;100.00;98642.66;5053299;28;20091;-80
2021/03/20 04:09:31;;;;;;;11.80;2.30;;;;;;;-4.76;100.00;98652.03;5037000;28;20051;-80
2021/03/20 04:12:11;;;;;;;8.07;2.35;;;;;;;-4.75;100.00;98651.84;5060728;28;20051;-80
2021/03/20 04:14:52;;;;;;;14.25;2.38;;;;;;;-4.69;100.00;98653.72;5057987;28;20060;-81
2021/03/20 04:17:30;;;;;;;7.97;2.15;;;;;;;-4.62;100.00;98653.78;5075857;28;20138;-80
2021/03/20 04:20:00;;;;;;;12.23;2.38;;;;;;;-4.53;100.00;98650.78;5076322;28;20052;-81
2021/03/20 04:22:43;;;;;;;6.20;2.30;;;;;;;-4.52;100.00;98657.72;5076470;28;20055;-80
2021/03/20 04:25:33;;;;;;;8.43;2.15;;;;;;;-4.58;100.00;98642.63;5063395;28;20067;-81
2021/03/20 04:28:13;;;;;;;7.32;2.45;;;;;;;-4.47;100.00;98655.28;5073360;28;20045;-80
2021/03/20 04:30:43;;;;;;;8.02;2.35;;;;;;;-4.44;100.00;98659.38;5054541;28;20064;-81
2021/03/20 04:33:27;;;;;;;9.45;2.95;;;;;;;-4.43;100.00;98666.28;5059592;28;20040;-81
2021/03/20 04:36:01;;;;;;;8.98;2.33;;;;;;;-4.48;100.00;98656.28;5075794;28;20365;-80
2021/03/20 04:38:27;;;;;;;10.02;2.65;;;;;;;-4.39;100.00;98672.81;5074926;28;20047;-81
2021/03/20 04:41:04;;;;;;;7.57;2.13;;;;;;;-4.38;100.00;98673.59;5074048;28;20171;-80
2021/03/20 04:43:33;;;;;;;6.22;2.25;;;;;;;-4.30;100.00;98654.97;5058273;28;20427;-81
2021/03/20 04:46:11;;;;;;;14.75;2.75;;;;;;;-4.31;100.00;98664.72;5076495;28;20044;-80
2021/03/20 04:48:41;;;;;;;6.63;2.58;;;;;;;-4.22;100.00;98663.56;5090815;28;20048;-81
2021/03/20 04:51:10;;;;;;;9.77;2.40;;;;;;;-4.23;100.00;98675.13;5073346;28;20062;-79
2021/03/20 04:53:37;;;;;;;10.18;2.15;;;;;;;-4.22;100.00;98683.88;5091608;28;20352;-80
2021/03/20 04:56:06;;;;;;;12.27;2.40;;;;;;;-4.25;100.00;98687.72;5074989;28;20464;-80
2021/03/20 04:58:57;;;;;;;9.65;2.38;;;;;;;-4.29;100.00;98681.22;5059267;28;20048;-80
2021/03/20 05:01:31;;;;;;;9.50;2.78;;;;;;;-4.41;100.00;98688.84;5076980;28;20078;-81
2021/03/20 05:04:06;;;;;;;;;;;;;;;-4.45;100.00;98679.69;5077451;28;20040;-81
2021/03/20 05:06:34;;;;;;;12.60;2.50;;;;;;;-4.55;100.00;98679.22;5077064;28;19935;-80
2021/03/20 05:09:05;;;;;;;9.00;2.88;;;;;;;-4.65;100.00;98686.69;5060125;28;20044;-79
2021/03/20 05:11:34;;;;;;;10.10;2.50;;;;;;;-4.85;100.00;98684.88;5078000;28;20040;-79
2021/03/20 05:14:03;;;;;;;12.60;3.45;;;;;;;-5.05;100.00;98685.53;5061792;28;20087;-79
2021/03/20 05:16:47;;;;;;;15.75;4.80;;;;;;;-5.13;100.00;98688.28;5064481;28;20056;-79
2021/03/20 05:19:14;;;;;;;9.60;2.80;;;;;;;-5.17;100.00;98692.34;5055543;28;20052;-81
2021/03/20 05:21:45;;;;;;;9.18;2.92;;;;;;;-5.19;100.00;98691.69;5067421;28;20063;-80
2021/03/20 05:24:18;;;;;;;15.77;4.03;;;;;;;-5.24;100.00;98702.00;5061093;28;20540;-80
2021/03/20 05:26:45;;;;;;;19.00;4.22;;;;;;;-5.32;100.00;98702.13;5071011;28;20049;-81
2021/03/20 05:29:11;;;;;;;15.07;4.10;;;;;;;-5.37;100.00;98701.88;5074368;28;20056;-80
2021/03/20 05:31:38;;;;;;;18.17;4.28;;;;;;;-5.41;100.00;98703.25;5037685;28;20049;-80
2021/03/20 05:34:24;;;;;;;15.82;3.85;;;;;;;-5.37;100.00;98699.25;5065169;28;20041;-80
2021/03/20 05:36:53;;;;;;;13.77;3.72;;;;;;;-5.42;100.00;98709.50;5063582;28;20048;-81
2021/03/20 05:39:20;;;;;;;11.43;3.17;;;;;;;-5.32;100.00;98712.69;5046014;28;20045;-82
2021/03/20 05:42:23;;;;;;;11.27;3.40;;;;;;;-5.29;100.00;98725.47;5043184;28;20045;-81
2021/03/20 05:45:20;;;;;;;10.05;2.85;;;;;;;-5.23;100.00;98716.81;5061848;28;20055;-81
2021/03/20 05:48:10;;;;;;;11.57;2.95;;;;;;;-5.06;100.00;98714.75;5073516;28;20044;-82
2021/03/20 05:50:54;;;;;;;10.43;2.78;;;;;;;-4.94;100.00;98712.41;5030611;28;20052;-81
2021/03/20 05:53:41;;;;;;;14.02;4.03;;;;;;;-4.79;100.00;98723.72;5074771;28;20049;-81
2021/03/20 05:56:16;;;;;;;17.00;4.60;;;;;;;-4.72;100.00;98724.63;5039033;28;20052;-81
2021/03/20 05:59:04;;;;;;;10.23;3.83;;;;;;;-4.45;100.00;98729.06;5060706;28;20044;-80
2021/03/20 06:01:47;;;;;;;10.60;3.60;;;;;;;-4.29;100.00;98730.59;5041648;28;20655;-81
2021/03/20 06:04:26;;;;;;;17.02;4.10;;;;;;;-4.17;100.00;98735.16;5042496;28;20044;-80
2021/03/20 06:07:29;;;;;;;12.38;3.78;;;;;;;-4.00;100.00;98741.75;5045514;28;20150;-81
2021/03/20 06:10:22;;;;;;;14.82;3.90;;;;;;;-3.83;100.00;98739.63;5060814;23;20059;-78
2021/03/20 06:13:26;;;;;;;12.70;3.70;;;;;;;-3.72;100.00;98744.34;5062066;28;20302;-78
2021/03/20 06:16:11;;;;;;;13.43;4.40;;;;;;;-3.69;100.00;98751.88;5076103;28;20053;-80
2021/03/20 06:18:49;;;;;;;11.98;4.28;;;;;;;-3.56;100.00;98754.59;5045563;28;20049;-81
2021/03/20 06:21:37;;;;;;;15.00;5.28;;;;;;;-3.47;100.00;98748.13;5042657;28;20048;-78
2021/03/20 06:24:22;;;;;;;12.32;5.38;;;;;;;-3.46;100.00;98741.78;5040875;28;20045;-79
2021/03/20 06:26:50;;;;;;;12.80;5.47;;;;;;;-3.38;100.00;98754.84;5040031;28;20044;-80
2021/03/20 06:29:29;;;;;;;15.80;6.50;;;;;;;-3.52;100.00;98753.19;5041244;28;20291;-78
2021/03/20 06:32:01;;;;;;;17.95;6.95;;;;;;;-3.36;100.00;98770.56;5048219;28;20045;-80
2021/03/20 06:34:37;;;;;;;17.48;6.38;;;;;;;-3.43;100.00;98769.72;5048213;28;20041;-79
2021/03/20 06:37:09;;;;;;;15.88;6.78;;;;;;;-3.21;100.00;98758.81;5045427;28;20045;-79
2021/03/20 06:39:45;;;;;;;16.17;7.03;;;;;;;-3.00;100.00;98752.53;5037473;28;20547;-81
2021/03/20 06:42:28;;;;;;;12.15;6.13;;;;;;;-3.10;100.00;98752.09;5028515;28;20049;-81
2021/03/20 06:45:01;;;;;;;13.52;6.95;;;;;;;-3.23;100.00;98757.38;5039414;28;20042;-79
2021/03/20 06:47:30;;;;;;;15.00;6.75;;;;;;;-3.26;100.00;98760.41;5032245;28;20045;-80
2021/03/20 06:50:07;;;;;;;13.05;5.40;;;;;;;-3.32;100.00;98772.59;5029674;28;20046;-80
2021/03/20 06:52:37;;;;;;;13.18;6.32;;;;;;;-3.34;100.00;98766.69;5029202;28;20053;-79
2021/03/20 06:55:19;;;;;;;16.58;5.90;;;;;;;-2.97;100.00;98762.72;5033361;28;20046;-80
2021/03/20 06:57:49;;;;;;;18.10;6.25;;;;;;;-3.11;100.00;98769.00;5057257;28;20113;-80
2021/03/20 07:00:33;;;;;;;13.82;5.30;;;;;;;-3.16;100.00;98771.44;5053290;28;20051;-80
2021/03/20 07:03:18;;;;;;;11.60;5.43;;;;;;;-2.88;100.00;98769.47;5051138;28;20040;-82
2021/03/20 07:05:47;;;;;;;14.40;4.93;;;;;;;-2.84;100.00;98769.88;5047916;28;20060;-78
2021/03/20 07:08:33;;;;;;;11.65;5.10;;;;;;;-2.72;100.00;98762.97;5048482;28;20113;-82
2021/03/20 07:11:01;;;;;;;11.85;4.75;;;;;;;-2.65;100.00;98758.47;5046072;28;20046;-80
2021/03/20 07:13:43;;;;;;;12.98;5.05;;;;;;;-3.00;100.00;98775.53;5041957;28;20537;-81
2021/03/20 07:16:21;;;;;;;13.27;5.40;;;;;;;-2.95;100.00;98779.22;5041506;28;20044;-79
2021/03/20 07:18:55;;;;;;;14.88;5.28;;;;;;;-3.12;100.00;98775.31;5048724;28;20128;-80
2021/03/20 07:21:36;;;;;;;13.55;5.50;;;;;;;-2.92;100.00;98778.00;5051737;28;20059;-82
2021/03/20 07:24:09;;;;;;;12.65;4.82;;;;;;;-2.59;100.00;98785.00;5053898;28;20045;-83
2021/03/20 07:26:54;;;;;;;14.07;5.20;;;;;;;-2.02;100.00;98789.69;5055288;28;20540;-80
2021/03/20 07:29:40;;;;;;;14.57;4.53;;;;;;;-1.81;100.00;98782.50;5054925;28;20044;-80
2021/03/20 07:32:07;;;;;;;12.23;4.50;;;;;;;-2.16;100.00;98766.00;5049707;28;20296;-79
2021/03/20 07:34:35;;;;;;;11.52;3.60;;;;;;;-2.59;100.00;98770.91;5034228;28;20057;-82
2021/03/20 07:37:20;;;;;;;7.95;3.55;;;;;;;-2.36;100.00;98767.84;5032811;28;20049;-82
2021/03/20 07:40:00;;;;;;;10.52;3.75;;;;;;;-2.53;100.00;98783.38;5030832;28;20046;-81
2021/03/20 07:42:37;;;;;;;8.18;3.80;;;;;;;-2.17;100.00;98782.97;5050863;28;20045;-79
2021/03/20 07:45:07;;;;;;;7.85;3.38;;;;;;;-1.94;100.00;98788.63;5061644;28;20116;-83
2021/03/20 07:47:37;;;;;;;8.95;3.65;;;;;;;-2.15;100.00;98792.34;5071211;28;20055;-80
2021/03/20 07:50:25;;;;;;;8.45;3.90;;;;;;;-2.50;100.00;98782.94;5072168;28;20078;-80
2021/03/20 07:53:11;;;;;;;8.80;3.30;;;;;;;-2.42;100.00;98790.69;5064847;28;20468;-79
2021/03/20 07:55:52;;;;;;;9.13;3.47;;;;;;;-2.25;100.00;98789.28;5055948;28;20055;-82
2021/03/20 07:58:22;;;;;;;9.20;3.53;;;;;;;-2.03;100.00;98784.56;5049381;28;20045;-80
2021/03/20 08:00:56;;;;;;;11.68;3.63;;;;;;;-1.84;100.00;98789.03;5042341;28;20052;-79
2021/03/20 08:03:29;;;;;;;13.20;3.38;;;;;;;-1.92;100.00;98774.16;5031888;28;20137;-78
2021/03/20 08:06:16;;;;;;;13.30;3.70;;;;;;;-1.54;100.00;98784.84;5032849;28;20105;-78
2021/03/20 08:08:42;;;;;;;8.68;3.15;;;;;;;-1.53;100.00;98786.50;5031124;28;20060;-78
2021/03/20 08:11:28;;;;;;;11.95;3.85;;;;;;;-1.76;100.00;98780.03;5051752;28;20101;-77
2021/03/20 08:13:56;;;;;;;;;;;;;;;-1.55;100.00;98796.50;5014820;28;20060;-77
2021/03/20 08:16:22;;;;;;;8.68;3.17;;;;;;;-1.54;100.00;98799.97;5034192;28;19924;-78
2021/03/20 08:18:53;;;;;;;9.82;3.22;;;;;;;-1.45;100.00;98788.94;5057175;28;20074;-80
2021/03/20 08:21:41;;;;;;;8.00;3.38;;;;;;;-1.38;100.00;98794.19;5062430;28;20036;-79
2021/03/20 08:24:19;;;;;;;8.57;3.30;;;;;;;-1.18;100.00;98786.13;5063938;28;20045;-78
2021/03/20 08:26:45;;;;;;;7.80;3.40;;;;;;;-1.12;100.00;98783.47;5052165;28;20762;-78
2021/03/20 08:29:49;;;;;;;11.95;3.83;;;;;;;-0.98;100.00;98797.50;5066893;28;20048;-77
2021/03/20 08:32:33;;;;;;;10.55;4.03;;;;;;;-0.97;100.00;98794.63;5082707;28;20045;-78
2021/03/20 08:35:20;;;;;;;7.55;3.67;;;;;;;-1.01;100.00;98797.94;5027644;28;20821;-78
2021/03/20 08:38:13;;;;;;;10.52;2.97;;;;;;;-1.22;100.00;98777.78;5044119;28;20048;-77
2021/03/20 08:40:57;;;;;;;7.68;2.67;;;;;;;-0.94;100.00;98801.34;5052361;28;20156;-77
2021/03/20 08:43:56;;;;;;;10.43;2.50;;;;;;;-0.87;100.00;98797.63;5051532;28;20053;-78
2021/03/20 08:46:28;;;;;;;12.95;3.20;;;;;;;-0.75;100.00;98789.81;5050098;28;20479;-78
2021/03/20 08:49:15;;;;;;;5.82;2.42;;;;;;;-0.86;100.00;98796.63;5050290;28;20910;-77
2021/03/20 08:51:53;;;;;;;8.13;2.53;;;;;;;-0.27;100.00;98809.50;5052224;28;20156;-78
2021/03/20 08:54:37;;;;;;;6.93;2.58;;;;;;;-0.27;100.00;98814.81;5044608;28;20291;-79
2021/03/20 08:57:30;;;;;;;7.55;2.63;;;;;;;-0.08;100.00;98823.69;5033786;28;20049;-77
2021/03/20 09:00:01;;;;;;;9.00;2.47;;;;;;;0.06;100.00;98824.38;5031141;28;20053;-77
2021/03/20 09:02:38;;;;;;;9.38;2.53;;;;;;;-0.24;100.00;98810.91;5028680;28;20049;-78
2021/03/20 09:05:27;;;;;;;5.97;2.00;;;;;;;0.21;100.00;98811.53;5034342;28;20119;-81
2021/03/20 09:08:00;;;;;;;6.65;2.80;;;;;;;0.03;100.00;98824.84;5030363;28;20144;-75
2021/03/20 09:10:35;;;;;;;8.60;2.42;;;;;;;0.68;100.00;98832.16;5032016;28;20443;-77
2021/03/20 09:13:14;;;;;;;8.32;2.30;;;;;;;0.88;100.00;98818.63;5030669;28;20540;-78
2021/03/20 09:15:48;;;;;;;9.45;2.45;;;;;;;1.61;100.00;98821.91;5028034;28;20092;-77
2021/03/20 09:18:16;;;;;;;4.75;2.10;;;;;;;1.67;100.00;98829.00;5026792;28;20076;-75
2021/03/20 09:20:52;;;;;;;4.63;1.85;;;;;;;1.58;100.00;98833.03;5027447;28;20053;-75
2021/03/20 09:23:33;;;;;;;11.57;2.38;;;;;;;1.52;100.00;98832.13;5025956;28;20041;-76
2021/03/20 09:26:03;;;;;;;8.07;2.38;;;;;;;1.74;100.00;98840.41;5027324;28;20045;-76
2021/03/20 09:28:51;;;;;;;5.45;1.98;;;;;;;2.05;100.00;98834.75;5009816;28;20053;-77
2021/03/20 09:31:30;;;;;;;5.05;1.77;;;;;;;1.74;100.00;98837.72;5027386;28;20056;-78
2021/03/20 09:34:28;;;;;;;3.10;1.63;;;;;;;1.62;100.00;98824.38;5029539;28;20108;-76
2021/03/20 09:36:54;;;;;;;5.32;1.85;;;;;;;1.69;99.97;98826.91;5046904;28;20048;-76
2021/03/20 09:39:52;;;;;;;7.60;2.60;;;;;;;1.42;100.00;98820.34;5049778;28;20052;-76
2021/03/20 09:42:25;;;;;;;8.05;2.40;;;;;;;1.31;100.00;98834.47;5054215;28;20515;-76
2021/03/20 09:45:23;;;;;;;7.05;1.85;;;;;;;1.66;100.00;98827.38;5032744;28;20055;-76
2021/03/20 09:47:53;;;;;;;3.85;1.83;;;;;;;2.48;100.00;98827.22;5055327;28;20052;-75
2021/03/20 09:50:19;;;;;;;5.95;2.00;;;;;;;3.06;100.00;98837.00;5068006;28;20052;-75
2021/03/20 09:53:16;;;;;;;5.53;1.63;;;;;;;3.10;90.86;98830.13;5067943;28;20054;-77
2021/03/20 09:55:43;;;;;;;4.43;1.50;;;;;;;2.89;84.20;98822.75;5068890;28;20048;-77
2021/03/20 09:58:18;;;;;;;7.00;1.70;;;;;;;2.89;81.67;98828.91;5070629;28;20059;-75
2021/03/20 10:00:51;;;;;;;6.90;1.60;;;;;;;2.62;87.00;98835.81;5063407;28;20044;-76
2021/03/20 10:03:44;;;;;;;4.00;1.70;;;;;;;2.36;83.60;98834.44;5060083;28;20052;-74
2021/03/20 10:06:30;;;;;;;7.05;1.80;;;;;;;2.26;79.60;98828.03;5050342;28;20041;-76
2021/03/20 10:09:01;;;;;;;5.10;1.88;;;;;;;2.67;83.81;98845.78;5049344;28;20049;-76
2021/03/20 10:11:32;;;;;;;4.40;1.55;;;;;;;3.50;84.66;98840.81;5048510;28;20044;-75
2021/03/20 10:13:59;;;;;;;5.47;1.60;;;;;;;4.17;76.99;98826.44;5050270;28;20118;-75
2021/03/20 10:16:33;;;;;;;5.38;1.65;;;;;;;3.59;65.46;98816.06;5051212;28;20083;-77
2021/03/20 10:19:10;;;;;;;7.00;2.00;;;;;;;3.85;64.73;98821.84;5052450;28;20428;-76
2021/03/20 10:21:38;;;;;;;6.60;1.48;;;;;;;3.66;64.43;98827.47;5051725;28;20641;-75
2021/03/20 10:24:37;;;;;;;6.00;2.03;;;;;;;4.10;64.78;98828.47;5048528;28;20068;-75
2021/03/20 10:27:06;;;;;;;6.30;1.67;;;;;;;4.55;63.61;98833.69;5017833;28;20075;-75
2021/03/20 10:29:36;;;;;;;5.78;1.83;;;;;;;4.00;65.16;98827.50;5062738;28;20055;-75
2021/03/20 10:32:30;;;;;;;4.22;1.40;;;;;;;4.06;76.84;98835.34;5050613;28;20049;-76
2021/03/20 10:34:57;;;;;;;6.28;1.73;;;;;;;3.17;68.40;98817.44;5046902;28;20483;-75
2021/03/20 10:37:33;;;;;;;3.90;1.60;;;;;;;2.50;82.39;98830.47;5051107;28;20067;-75
2021/03/20 10:40:05;;;;;;;5.75;1.40;;;;;;;2.24;77.84;98819.47;5049508;28;20106;-76
2021/03/20 10:42:34;;;;;;;3.53;1.20;;;;;;;1.79;85.64;98822.66;5049612;28;20061;-77
2021/03/20 10:45:08;;;;;;;3.42;1.30;;;;;;;1.92;100.00;98818.13;5051973;28;20053;-76
2021/03/20 10:47:39;;;;;;;5.40;1.42;;;;;;;2.92;79.21;98819.59;5043375;28;20049;-77
2021/03/20 10:50:22;;;;;;;6.68;1.40;;;;;;;3.39;78.61;98821.06;5039083;28;20038;-76
2021/03/20 10:52:50;;;;;;;5.78;1.33;;;;;;;4.26;66.39;98816.09;5030697;28;20045;-77
2021/03/20 10:55:25;;;;;;;6.55;1.23;;;;;;;4.69;67.20;98813.53;5031958;28;20060;-76
2021/03/20 10:57:53;;;;;;;5.88;1.50;;;;;;;5.59;57.43;98818.34;5051837;28;20415;-77
2021/03/20 11:00:30;;;;;;;3.17;1.05;;;;;;;6.09;49.96;98813.44;5055317;28;20174;-77
2021/03/20 11:03:13;;;;;;;3.50;1.17;;;;;;;6.15;48.59;98808.91;5058523;28;20385;-77
2021/03/20 11:05:41;;;;;;;5.15;1.20;;;;;;;7.81;44.53;98808.84;5050560;28;20045;-77
2021/03/20 11:08:19;;;;;;;4.78;1.35;;;;;;;6.83;44.26;98802.63;5068664;28;20555;-75
2021/03/20 11:10:50;;;;;;;5.35;1.50;;;;;;;7.74;44.76;98800.22;5070479;28;20048;-76
2021/03/20 11:13:16;;;;;;;3.33;1.17;;;;;;;8.33;41.32;98797.81;5059232;28;20049;-76
2021/03/20 11:15:44;;;;;;;4.13;1.25;;;;;;;7.36;41.63;98794.19;5063215;28;20145;-76
2021/03/20 11:18:20;;;;;;;4.78;1.20;;;;;;;7.05;43.64;98805.13;5069714;28;20121;-77
2021/03/20 11:20:47;;;;;;;3.05;1.25;;;;;;;7.06;44.33;98790.59;5069383;28;20048;-76
2021/03/20 11:23:29;;;;;;;2.13;1.30;;;;;;;6.85;43.33;98790.53;5070294;28;20052;-75
2021/03/20 11:25:57;;;;;;;3.50;1.27;;;;;;;6.57;47.53;98792.78;5068886;28;20040;-78
2021/03/20 11:28:34;;;;;;;5.47;1.75;;;;;;;4.59;52.25;98789.25;5069690;28;20048;-77
2021/03/20 11:31:02;;;;;;;5.75;1.50;;;;;;;3.35;58.31;98790.50;5070570;28;20076;-76
2021/03/20 11:33:33;;;;;;;4.55;1.40;;;;;;;2.61;62.36;98790.63;5060399;28;20466;-76
2021/03/20 11:36:01;;;;;;;5.50;1.40;;;;;;;2.82;63.04;98795.31;5050805;28;20045;-76
2021/03/20 11:38:28;;;;;;;5.50;1.75;;;;;;;2.48;74.03;98795.16;5063009;28;20084;-75
2021/03/20 11:40:54;;;;;;;6.45;1.90;;;;;;;2.22;75.48;98782.28;5055695;28;20041;-77
2021/03/20 11:43:28;;;;;;;5.68;1.55;;;;;;;2.41;74.10;98780.28;5059215;28;20079;-75
2021/03/20 11:46:08;;;;;;;6.78;1.70;;;;;;;2.92;72.80;98782.16;5072733;28;20044;-76
2021/03/20 11:48:36;;;;;;;5.03;1.85;;;;;;;2.87;78.21;98774.03;5057921;28;20053;-78
2021/03/20 11:51:06;;;;;;;8.73;1.77;;;;;;;3.09;77.09;98769.66;5055953;28;20148;-77
2021/03/20 11:53:36;;;;;;;6.28;1.60;;;;;;;4.40;64.10;98769.13;5057146;28;20068;-78
2021/03/20 11:56:23;;;;;;;5.55;1.65;;;;;;;4.48;59.22;98775.94;5052901;28;20041;-77
2021/03/20 11:58:53;;;;;;;4.32;1.90;;;;;;;5.42;56.23;98747.81;5048701;28;20041;-78
2021/03/20 12:01:32;;;;;;;5.20;1.70;;;;;;;5.71;54.19;98751.81;5052154;28;20055;-78
2021/03/20 12:04:17;;;;;;;3.63;1.55;;;;;;;5.48;53.93;98741.41;5052113;28;20053;-78
2021/03/20 12:06:44;;;;;;;4.78;1.05;;;;;;;3.66;52.69;98733.75;5068369;28;20041;-77